createdAt,value
2023-05-19T00:00:02.064Z,87.96
2023-05-19T00:01:02.012Z,87.45
2023-05-19T00:02:02.006Z,87.65
2023-05-19T00:03:02.077Z,87.79
2023-05-19T00:04:01.922Z,87.49
2023-05-19T00:05:01.799Z,87.69
2023-05-19T00:06:01.796Z,88.00
2023-05-19T00:07:01.939Z,88.51
2023-05-19T00:08:01.861Z,88.51
2023-05-19T00:09:01.776Z,88.62
2023-05-19T00:10:01.881Z,89.03
2023-05-19T00:11:01.863Z,89.13
2023-05-19T00:12:01.657Z,88.62
2023-05-19T00:13:01.723Z,88.41
2023-05-19T00:14:01.861Z,88.41
2023-05-19T00:15:01.861Z,88.92
2023-05-19T00:16:01.628Z,88.92
2023-05-19T00:17:01.822Z,89.13
2023-05-19T00:18:01.684Z,88.86
2023-05-19T00:19:01.663Z,89.07
2023-05-19T00:20:01.593Z,89.48
2023-05-19T00:21:01.922Z,89.89
2023-05-19T00:22:01.590Z,89.58
2023-05-19T00:23:01.712Z,89.69
2023-05-19T00:24:01.597Z,89.69
2023-05-19T00:25:01.517Z,90.41
2023-05-19T00:26:01.522Z,90.41
2023-05-19T00:27:01.733Z,90.30
2023-05-19T00:28:01.463Z,90.09
2023-05-19T00:29:01.518Z,90.09
2023-05-19T00:30:01.467Z,90.30
2023-05-19T00:31:01.483Z,90.41
2023-05-19T00:32:01.849Z,90.00
2023-05-19T00:33:02.069Z,90.00
2023-05-19T00:34:01.620Z,90.03
2023-05-19T00:35:01.606Z,89.94
2023-05-19T00:36:01.398Z,90.55
2023-05-19T00:37:01.466Z,90.86
2023-05-19T00:38:01.609Z,90.75
2023-05-19T00:39:01.684Z,90.86
2023-05-19T00:40:01.415Z,90.86
2023-05-19T00:41:01.502Z,91.06
2023-05-19T00:42:01.403Z,90.86
2023-05-19T00:43:01.544Z,90.55
2023-05-19T00:44:01.366Z,90.14
2023-05-19T00:45:01.356Z,89.94
2023-05-19T00:46:01.401Z,90.14
2023-05-19T00:47:01.527Z,90.45
2023-05-19T00:48:01.438Z,90.45
2023-05-19T00:49:01.291Z,90.75
2023-05-19T00:50:01.506Z,91.11
2023-05-19T00:51:01.345Z,91.27
2023-05-19T00:52:01.272Z,90.90
2023-05-19T00:53:01.446Z,90.59
2023-05-19T00:54:01.362Z,90.59
2023-05-19T00:55:01.264Z,90.90
2023-05-19T00:56:01.244Z,91.42
2023-05-19T00:57:01.324Z,91.42
2023-05-19T00:58:01.287Z,91.83
2023-05-19T00:59:01.289Z,92.14
2023-05-19T01:00:01.199Z,92.44
2023-05-19T01:01:01.227Z,92.03
2023-05-19T01:02:01.263Z,91.83
2023-05-19T01:03:01.383Z,92.18
2023-05-19T01:04:01.426Z,92.29
2023-05-19T01:05:01.142Z,92.38
2023-05-19T01:06:01.332Z,92.29
2023-05-19T01:07:01.128Z,92.59
2023-05-19T01:08:01.134Z,92.69
2023-05-19T01:09:01.151Z,92.59
2023-05-19T01:10:01.078Z,93.01
2023-05-19T01:11:01.444Z,93.21
2023-05-19T01:12:01.088Z,93.31
2023-05-19T01:13:01.066Z,93.21
2023-05-19T01:14:01.017Z,93.98
2023-05-19T01:15:01.107Z,94.08
2023-05-19T01:16:01.269Z,94.08
2023-05-19T01:17:01.224Z,94.08
2023-05-19T01:18:01.077Z,94.28
2023-05-19T01:19:01.038Z,94.28
2023-05-19T01:20:01.033Z,94.38
2023-05-19T01:21:01.025Z,94.80
2023-05-19T01:22:01.025Z,94.90
2023-05-19T01:23:00.969Z,94.80
2023-05-19T01:24:01.171Z,94.38
2023-05-19T01:25:01.112Z,94.28
2023-05-19T01:26:00.966Z,94.49
2023-05-19T01:27:00.975Z,95.15
2023-05-19T01:28:00.973Z,95.25
2023-05-19T01:29:01.296Z,95.05
2023-05-19T01:30:01.034Z,94.95
2023-05-19T01:31:00.897Z,95.56
2023-05-19T01:32:00.905Z,95.56
2023-05-19T01:33:00.907Z,95.56
2023-05-19T01:34:00.934Z,95.36
2023-05-19T01:35:00.840Z,95.25
2023-05-19T01:36:00.860Z,95.25
2023-05-19T01:37:00.846Z,95.20
2023-05-19T01:38:00.823Z,95.30
2023-05-19T01:39:00.864Z,95.30
2023-05-19T01:40:00.779Z,95.50
2023-05-19T01:41:00.983Z,95.92
2023-05-19T01:42:00.790Z,96.12
2023-05-19T01:43:00.772Z,96.33
2023-05-19T01:44:00.903Z,96.33
2023-05-19T01:45:00.790Z,96.33
2023-05-19T01:46:01.303Z,96.44
2023-05-19T01:47:00.729Z,96.53
2023-05-19T01:48:00.760Z,96.44
2023-05-19T01:49:00.702Z,96.48
2023-05-19T01:50:00.704Z,96.79
2023-05-19T01:51:00.931Z,96.69
2023-05-19T01:52:00.665Z,96.48
2023-05-19T01:53:00.668Z,96.48
2023-05-19T01:54:00.779Z,96.89
2023-05-19T01:55:00.888Z,97.09
2023-05-19T01:56:00.714Z,96.99
2023-05-19T01:57:00.864Z,97.20
2023-05-19T01:58:00.869Z,97.30
2023-05-19T01:59:00.804Z,97.09
2023-05-19T02:00:00.622Z,96.89
2023-05-19T02:01:00.608Z,96.79
2023-05-19T02:02:00.675Z,96.99
2023-05-19T02:03:00.711Z,97.09
2023-05-19T02:04:00.621Z,97.20
2023-05-19T02:05:01.428Z,97.30
2023-05-19T02:06:00.662Z,97.41
2023-05-19T02:07:00.586Z,97.45
2023-05-19T02:08:00.528Z,97.34
2023-05-19T02:09:00.592Z,97.45
2023-05-19T02:10:00.507Z,97.55
2023-05-19T02:11:00.611Z,97.76
2023-05-19T02:12:00.535Z,97.97
2023-05-19T02:13:00.483Z,97.97
2023-05-19T02:14:00.468Z,97.76
2023-05-19T02:15:00.713Z,97.55
2023-05-19T02:16:00.522Z,97.34
2023-05-19T02:17:00.443Z,97.25
2023-05-19T02:18:00.670Z,97.14
2023-05-19T02:19:00.491Z,97.34
2023-05-19T02:20:00.611Z,97.66
2023-05-19T02:21:00.438Z,97.81
2023-05-19T02:22:00.495Z,97.86
2023-05-19T02:23:00.588Z,98.07
2023-05-19T02:24:00.403Z,98.18
2023-05-19T02:25:00.535Z,98.22
2023-05-19T02:26:00.351Z,98.22
2023-05-19T02:27:00.546Z,98.11
2023-05-19T02:28:00.336Z,98.22
2023-05-19T02:29:00.625Z,98.32
2023-05-19T02:30:00.368Z,98.32
2023-05-19T02:31:00.266Z,98.43
2023-05-19T02:32:00.343Z,98.43
2023-05-19T02:33:00.676Z,98.43
2023-05-19T02:34:00.246Z,98.32
2023-05-19T02:35:00.414Z,98.11
2023-05-19T02:36:00.466Z,97.91
2023-05-19T02:37:00.255Z,97.91
2023-05-19T02:38:00.244Z,98.01
2023-05-19T02:39:01.035Z,98.22
2023-05-19T02:40:00.196Z,98.22
2023-05-19T02:41:00.561Z,98.32
2023-05-19T02:42:00.599Z,98.43
2023-05-19T02:43:00.181Z,98.43
2023-05-19T02:44:00.190Z,98.32
2023-05-19T02:45:00.429Z,98.22
2023-05-19T02:46:00.352Z,98.43
2023-05-19T02:47:00.216Z,98.43
2023-05-19T02:48:00.195Z,98.43
2023-05-19T02:49:00.320Z,98.43
2023-05-19T02:50:00.209Z,98.53
2023-05-19T02:51:00.084Z,98.74
2023-05-19T02:52:00.158Z,98.63
2023-05-19T02:53:00.069Z,98.74
2023-05-19T02:54:00.079Z,98.99
2023-05-19T02:55:00.181Z,98.99
2023-05-19T02:56:00.067Z,98.99
2023-05-19T02:57:00.150Z,98.88
2023-05-19T02:58:00.044Z,98.88
2023-05-19T02:59:00.205Z,98.99
2023-05-19T02:59:59.989Z,99.19
2023-05-19T03:01:00.094Z,99.19
2023-05-19T03:02:00.522Z,99.19
2023-05-19T03:03:00.366Z,99.19
2023-05-19T03:04:00.364Z,99.19
2023-05-19T03:05:00.073Z,99.19
2023-05-19T03:06:00.591Z,99.30
2023-05-19T03:07:00.431Z,99.19
2023-05-19T03:08:00.065Z,99.30
2023-05-19T03:09:00.236Z,99.19
2023-05-19T03:09:59.924Z,99.30
2023-05-19T03:10:59.978Z,99.19
2023-05-19T03:11:59.947Z,99.19
2023-05-19T03:12:59.870Z,99.30
2023-05-19T03:14:00.039Z,99.40
2023-05-19T03:14:59.957Z,99.44
2023-05-19T03:16:00.093Z,99.55
2023-05-19T03:16:59.904Z,99.61
2023-05-19T03:18:00.601Z,99.71
2023-05-19T03:18:59.984Z,99.86
2023-05-19T03:19:59.849Z,99.96
2023-05-19T03:20:59.900Z,99.92
2023-05-19T03:21:59.784Z,99.96
2023-05-19T03:22:59.757Z,99.92
2023-05-19T03:23:59.900Z,99.96
2023-05-19T03:24:59.802Z,99.86
2023-05-19T03:25:59.871Z,99.65
2023-05-19T03:26:59.914Z,99.65
2023-05-19T03:27:59.744Z,99.76
2023-05-19T03:28:59.934Z,99.65
2023-05-19T03:29:59.856Z,99.65
2023-05-19T03:30:59.782Z,99.65
2023-05-19T03:31:59.805Z,99.76
2023-05-19T03:33:00.022Z,99.76
2023-05-19T03:33:59.740Z,99.76
2023-05-19T03:34:59.675Z,99.76
2023-05-19T03:35:59.754Z,99.96
2023-05-19T03:36:59.818Z,99.96
2023-05-19T03:37:59.647Z,99.99
2023-05-19T03:38:59.851Z,99.96
2023-05-19T03:39:59.572Z,99.96
2023-05-19T03:40:59.587Z,99.86
2023-05-19T03:41:59.683Z,99.86
2023-05-19T03:42:59.834Z,99.86
2023-05-19T03:43:59.639Z,99.86
2023-05-19T03:44:59.612Z,99.96
2023-05-19T03:45:59.669Z,99.99
2023-05-19T03:46:59.544Z,99.99
2023-05-19T03:47:59.565Z,99.99
2023-05-19T03:48:59.520Z,99.99
2023-05-19T03:49:59.525Z,99.99
2023-05-19T03:50:59.595Z,99.99
2023-05-19T03:51:59.667Z,99.99
2023-05-19T03:52:59.548Z,99.99
2023-05-19T03:53:59.713Z,99.99
2023-05-19T03:54:59.560Z,99.99
2023-05-19T03:55:59.598Z,99.99
2023-05-19T03:56:59.524Z,99.99
2023-05-19T03:57:59.409Z,99.99
2023-05-19T03:58:59.392Z,99.99
2023-05-19T03:59:59.547Z,99.99
2023-05-19T04:00:59.361Z,99.99
2023-05-19T04:01:59.394Z,99.99
2023-05-19T04:02:59.468Z,99.99
2023-05-19T04:03:59.392Z,99.99
2023-05-19T04:04:59.415Z,99.99
2023-05-19T04:05:59.404Z,99.99
2023-05-19T04:06:59.320Z,99.99
2023-05-19T04:07:59.324Z,99.99
2023-05-19T04:08:59.369Z,99.99
2023-05-19T04:09:59.425Z,99.99
2023-05-19T04:10:59.304Z,99.99
2023-05-19T04:11:59.268Z,99.98
2023-05-19T04:12:59.256Z,99.87
2023-05-19T04:13:59.264Z,99.66
2023-05-19T04:14:59.362Z,99.66
2023-05-19T04:15:59.252Z,99.66
2023-05-19T04:16:59.409Z,99.56
2023-05-19T04:17:59.252Z,99.46
2023-05-19T04:18:59.361Z,99.46
2023-05-19T04:19:59.349Z,99.66
2023-05-19T04:20:59.313Z,99.77
2023-05-19T04:21:59.476Z,99.82
2023-05-19T04:22:59.197Z,99.82
2023-05-19T04:23:59.251Z,99.62
2023-05-19T04:24:59.307Z,99.62
2023-05-19T04:25:59.154Z,99.82
2023-05-19T04:26:59.265Z,99.82
2023-05-19T04:27:59.378Z,99.72
2023-05-19T04:28:59.100Z,99.72
2023-05-19T04:29:59.103Z,99.72
2023-05-19T04:30:59.086Z,99.72
2023-05-19T04:31:59.082Z,99.72
2023-05-19T04:32:59.135Z,99.62
2023-05-19T04:33:59.068Z,99.52
2023-05-19T04:34:59.060Z,99.52
2023-05-19T04:35:59.185Z,99.68
2023-05-19T04:36:59.338Z,99.99
2023-05-19T04:37:59.211Z,99.88
2023-05-19T04:38:59.119Z,99.88
2023-05-19T04:39:59.116Z,99.78
2023-05-19T04:40:59.008Z,99.78
2023-05-19T04:41:59.097Z,99.68
2023-05-19T04:42:58.996Z,99.57
2023-05-19T04:43:59.195Z,99.47
2023-05-19T04:44:59.141Z,99.26
2023-05-19T04:45:59.066Z,99.26
2023-05-19T04:46:58.997Z,99.32
2023-05-19T04:47:58.980Z,99.22
2023-05-19T04:48:58.934Z,99.11
2023-05-19T04:49:58.922Z,99.22
2023-05-19T04:50:58.971Z,99.43
2023-05-19T04:51:58.946Z,99.43
2023-05-19T04:52:58.968Z,99.32
2023-05-19T04:53:58.891Z,99.17
2023-05-19T04:54:58.896Z,98.86
2023-05-19T04:55:58.877Z,98.86
2023-05-19T04:56:59.037Z,98.76
2023-05-19T04:57:58.843Z,98.76
2023-05-19T04:58:58.829Z,98.66
2023-05-19T04:59:59.053Z,98.50
2023-05-19T05:00:58.970Z,98.10
2023-05-19T05:01:58.969Z,98.20
2023-05-19T05:02:58.920Z,98.20
2023-05-19T05:03:59.041Z,98.10
2023-05-19T05:04:58.891Z,97.78
2023-05-19T05:05:58.833Z,98.05
2023-05-19T05:06:59.175Z,97.85
2023-05-19T05:07:58.916Z,97.74
2023-05-19T05:08:58.792Z,97.74
2023-05-19T05:09:59.103Z,97.95
2023-05-19T05:10:58.830Z,97.33
2023-05-19T05:11:58.883Z,96.71
2023-05-19T05:12:58.724Z,96.61
2023-05-19T05:13:58.700Z,96.71
2023-05-19T05:14:58.660Z,96.81
2023-05-19T05:15:58.781Z,96.50
2023-05-19T05:16:58.817Z,96.56
2023-05-19T05:17:58.853Z,96.77
2023-05-19T05:18:58.698Z,96.88
2023-05-19T05:19:58.642Z,96.97
2023-05-19T05:20:58.599Z,96.97
2023-05-19T05:21:58.542Z,96.88
2023-05-19T05:22:58.540Z,96.05
2023-05-19T05:23:58.630Z,95.84
2023-05-19T05:24:58.601Z,96.42
2023-05-19T05:25:58.944Z,96.42
2023-05-19T05:26:59.031Z,95.90
2023-05-19T05:27:58.514Z,95.28
2023-05-19T05:28:58.505Z,95.28
2023-05-19T05:29:59.293Z,94.98
2023-05-19T05:30:58.554Z,94.52
2023-05-19T05:31:58.889Z,94.31
2023-05-19T05:32:58.697Z,94.01
2023-05-19T05:33:58.623Z,93.59
2023-05-19T05:34:58.714Z,93.18
2023-05-19T05:35:58.541Z,92.93
2023-05-19T05:36:58.429Z,93.24
2023-05-19T05:37:58.423Z,92.73
2023-05-19T05:38:58.461Z,93.14
2023-05-19T05:39:58.448Z,93.35
2023-05-19T05:40:58.370Z,92.42
2023-05-19T05:41:58.475Z,92.11
2023-05-19T05:42:58.745Z,91.97
2023-05-19T05:43:58.651Z,91.66
2023-05-19T05:44:58.650Z,92.07
2023-05-19T05:45:58.445Z,92.07
2023-05-19T05:46:58.438Z,91.35
2023-05-19T05:47:58.515Z,90.94
2023-05-19T05:48:58.357Z,91.41
2023-05-19T05:49:58.342Z,91.41
2023-05-19T05:50:58.283Z,91.82
2023-05-19T05:52:05.563Z,89.15
2023-05-19T05:52:59.123Z,89.66
2023-05-19T05:53:58.308Z,90.38
2023-05-19T05:54:58.411Z,89.15
2023-05-19T05:55:58.484Z,89.83
2023-05-19T05:56:58.251Z,90.34
2023-05-19T05:57:58.319Z,90.55
2023-05-19T05:58:58.314Z,90.65
2023-05-19T05:59:58.338Z,90.81
2023-05-19T06:00:58.305Z,90.81
2023-05-19T06:01:58.244Z,90.91
2023-05-19T06:02:58.456Z,90.61
2023-05-19T06:03:58.194Z,89.48
2023-05-19T06:04:58.380Z,89.69
2023-05-19T06:05:58.163Z,89.17
2023-05-19T06:06:58.569Z,89.89
2023-05-19T06:07:58.187Z,88.21
2023-05-19T06:08:58.414Z,87.79
2023-05-19T06:09:58.214Z,88.62
2023-05-19T06:10:58.094Z,88.92
2023-05-19T06:11:58.518Z,88.10
2023-05-19T06:12:58.361Z,88.17
2023-05-19T06:13:58.317Z,86.63
2023-05-19T06:14:58.328Z,85.39
2023-05-19T06:16:00.457Z,87.10
2023-05-19T06:16:58.062Z,87.30
2023-05-19T06:17:58.259Z,86.99
2023-05-19T06:18:58.117Z,86.28
2023-05-19T06:19:58.145Z,86.90
2023-05-19T06:20:58.219Z,84.91
2023-05-19T06:21:58.036Z,86.44
2023-05-19T06:22:58.065Z,86.85
2023-05-19T06:23:58.133Z,87.06
2023-05-19T06:24:58.158Z,86.71
2023-05-19T06:25:58.341Z,86.20
2023-05-19T06:26:58.103Z,83.95
2023-05-19T06:27:57.939Z,84.66
2023-05-19T06:28:57.952Z,83.54
2023-05-19T06:29:58.084Z,84.87
2023-05-19T06:30:57.984Z,85.44
2023-05-19T06:31:57.892Z,86.05
2023-05-19T06:32:58.112Z,85.44
2023-05-19T06:33:57.857Z,85.55
2023-05-19T06:34:57.837Z,85.50
2023-05-19T06:35:57.903Z,83.36
2023-05-19T06:36:57.925Z,83.66
2023-05-19T06:37:57.926Z,83.32
2023-05-19T06:38:58.849Z,82.20
2023-05-19T06:39:58.017Z,82.20
2023-05-19T06:40:57.814Z,81.07
2023-05-19T06:41:57.995Z,81.24
2023-05-19T06:42:57.964Z,79.66
2023-05-19T06:43:57.802Z,80.58
2023-05-19T06:44:57.993Z,80.99
2023-05-19T06:45:57.751Z,81.40
2023-05-19T06:46:58.067Z,81.67
2023-05-19T06:47:58.008Z,82.08
2023-05-19T06:48:57.700Z,79.63
2023-05-19T06:49:57.907Z,78.71
2023-05-19T06:50:57.775Z,79.32
2023-05-19T06:51:57.844Z,79.32
2023-05-19T06:52:58.085Z,77.89
2023-05-19T06:53:57.924Z,77.75
2023-05-19T06:54:57.748Z,78.88
2023-05-19T06:55:59.541Z,79.18
2023-05-19T06:56:57.691Z,76.84
2023-05-19T06:57:57.666Z,75.48
2023-05-19T06:58:57.599Z,74.35
2023-05-19T06:59:57.579Z,76.29
2023-05-19T07:00:57.739Z,74.93
2023-05-19T07:01:57.694Z,76.15
2023-05-19T07:02:57.866Z,74.52
2023-05-19T07:03:57.673Z,75.54
2023-05-19T07:04:57.780Z,74.99
2023-05-19T07:05:57.647Z,76.22
2023-05-19T07:06:57.568Z,75.51
2023-05-19T07:07:57.529Z,74.49
2023-05-19T07:08:57.687Z,75.88
2023-05-19T07:09:57.506Z,74.65
2023-05-19T07:10:57.498Z,74.65
2023-05-19T07:11:57.512Z,73.13
2023-05-19T07:12:57.611Z,72.72
2023-05-19T07:13:57.751Z,74.01
2023-05-19T07:14:57.648Z,74.11
2023-05-19T07:15:57.546Z,73.40
2023-05-19T07:16:57.590Z,71.47
2023-05-19T07:17:57.501Z,73.77
2023-05-19T07:18:57.493Z,72.75
2023-05-19T07:19:57.514Z,70.82
2023-05-19T07:20:57.504Z,73.84
2023-05-19T07:21:57.518Z,72.52
2023-05-19T07:22:57.479Z,70.89
2023-05-19T07:23:57.439Z,68.85
2023-05-19T07:24:57.393Z,71.47
2023-05-19T07:25:57.358Z,70.86
2023-05-19T07:26:57.473Z,71.97
2023-05-19T07:27:57.330Z,69.23
2023-05-19T07:28:57.569Z,68.38
2023-05-19T07:29:57.414Z,70.01
2023-05-19T07:30:57.289Z,70.72
2023-05-19T07:31:57.293Z,70.99
2023-05-19T07:32:57.327Z,69.87
2023-05-19T07:33:57.274Z,68.83
2023-05-19T07:34:57.224Z,69.95
2023-05-19T07:35:57.354Z,68.93
2023-05-19T07:36:57.545Z,68.01
2023-05-19T07:37:57.215Z,65.85
2023-05-19T07:38:57.250Z,68.29
2023-05-19T07:39:57.222Z,68.59
2023-05-19T07:40:57.184Z,67.03
2023-05-19T07:41:57.191Z,67.55
2023-05-19T07:42:57.332Z,68.32
2023-05-19T07:43:57.150Z,65.69
2023-05-19T07:44:57.593Z,66.60
2023-05-19T07:45:57.160Z,65.36
2023-05-19T07:46:57.127Z,66.74
2023-05-19T07:47:57.228Z,66.24
2023-05-19T07:48:57.207Z,65.39
2023-05-19T07:49:57.214Z,65.36
2023-05-19T07:50:57.111Z,63.81
2023-05-19T07:51:57.207Z,63.48
2023-05-19T07:52:57.080Z,62.74
2023-05-19T07:53:57.047Z,59.89
2023-05-19T07:54:57.131Z,58.67
2023-05-19T07:55:58.542Z,61.17
2023-05-19T07:56:57.037Z,60.24
2023-05-19T07:57:57.092Z,57.68
2023-05-19T07:58:57.037Z,56.68
2023-05-19T07:59:57.078Z,58.29
2023-05-19T08:00:57.005Z,58.89
2023-05-19T08:01:56.974Z,60.85
2023-05-19T08:02:57.254Z,58.64
2023-05-19T08:03:57.042Z,56.20
2023-05-19T08:04:57.027Z,57.30
2023-05-19T08:05:56.938Z,57.90
2023-05-19T08:06:56.923Z,55.31
2023-05-19T08:07:56.906Z,57.81
2023-05-19T08:08:57.076Z,52.97
2023-05-19T08:09:56.859Z,57.00
2023-05-19T08:10:56.911Z,56.49
2023-05-19T08:11:56.900Z,55.29
2023-05-19T08:12:57.080Z,56.87
2023-05-19T08:13:56.893Z,57.45
2023-05-19T08:14:58.833Z,54.63
2023-05-19T08:15:56.948Z,55.94
2023-05-19T08:16:56.881Z,57.72
2023-05-19T08:17:56.859Z,52.82
2023-05-19T08:18:56.854Z,54.15
2023-05-19T08:19:56.831Z,57.15
2023-05-19T08:20:56.893Z,55.94
2023-05-19T08:21:57.390Z,54.80
2023-05-19T08:22:56.960Z,54.13
2023-05-19T08:23:56.811Z,55.13
2023-05-19T08:24:56.816Z,53.92
2023-05-19T08:25:56.980Z,55.21
2023-05-19T08:26:56.854Z,53.09
2023-05-19T08:27:56.767Z,54.80
2023-05-19T08:28:57.064Z,55.31
2023-05-19T08:29:56.708Z,55.79
2023-05-19T08:30:56.751Z,54.88
2023-05-19T08:31:56.844Z,52.97
2023-05-19T08:32:56.793Z,55.08
2023-05-19T08:33:56.728Z,55.68
2023-05-19T08:34:56.620Z,56.26
2023-05-19T08:35:56.615Z,55.96
2023-05-19T08:36:56.624Z,54.13
2023-05-19T08:37:56.634Z,53.30
2023-05-19T08:38:56.636Z,55.71
2023-05-19T08:39:56.571Z,52.80
2023-05-19T08:40:56.613Z,52.32
2023-05-19T08:41:56.571Z,53.42
2023-05-19T08:42:56.602Z,54.83
2023-05-19T08:43:56.569Z,52.80
2023-05-19T08:44:56.647Z,52.39
2023-05-19T08:45:56.794Z,53.17
2023-05-19T08:46:56.823Z,54.65
2023-05-19T08:47:56.828Z,51.14
2023-05-19T08:48:56.749Z,51.04
2023-05-19T08:49:56.583Z,49.43
2023-05-19T08:50:56.863Z,51.24
2023-05-19T08:51:56.763Z,48.83
2023-05-19T08:52:56.672Z,51.04
2023-05-19T08:53:57.022Z,49.91
2023-05-19T08:54:56.428Z,49.99
2023-05-19T08:55:56.465Z,51.27
2023-05-19T08:56:56.552Z,48.66
2023-05-19T08:57:56.460Z,50.29
2023-05-19T08:58:56.620Z,50.87
2023-05-19T08:59:56.398Z,47.36
2023-05-19T09:00:56.438Z,49.14
2023-05-19T09:01:56.615Z,46.24
2023-05-19T09:03:01.212Z,49.11
2023-05-19T09:03:56.594Z,47.52
2023-05-19T09:04:56.641Z,50.74
2023-05-19T09:05:56.739Z,49.54
2023-05-19T09:06:56.664Z,48.44
2023-05-19T09:07:56.553Z,49.84
2023-05-19T09:08:56.404Z,50.24
2023-05-19T09:09:56.444Z,50.84
2023-05-19T09:10:56.327Z,49.64
2023-05-19T09:11:56.469Z,49.34
2023-05-19T09:12:56.773Z,48.54
2023-05-19T09:13:56.400Z,46.01
2023-05-19T09:14:56.319Z,47.31
2023-05-19T09:15:56.626Z,46.28
2023-05-19T09:16:56.440Z,48.19
2023-05-19T09:17:56.295Z,51.17
2023-05-19T09:18:56.519Z,48.74
2023-05-19T09:19:56.381Z,50.24
2023-05-19T09:20:56.236Z,47.54
2023-05-19T09:21:56.554Z,46.76
2023-05-19T09:22:56.250Z,50.29
2023-05-19T09:23:56.146Z,49.07
2023-05-19T09:24:56.289Z,46.54
2023-05-19T09:25:56.188Z,48.96
2023-05-19T09:26:57.634Z,49.66
2023-05-19T09:27:56.694Z,50.54
2023-05-19T09:28:56.205Z,50.04
2023-05-19T09:29:56.103Z,47.14
2023-05-19T09:30:56.359Z,48.44
2023-05-19T09:31:56.195Z,49.52
2023-05-19T09:32:56.202Z,49.91
2023-05-19T09:33:56.100Z,47.86
2023-05-19T09:34:56.544Z,44.48
2023-05-19T09:35:56.218Z,48.21
2023-05-19T09:36:56.300Z,52.89
2023-05-19T09:37:56.215Z,51.04
2023-05-19T09:38:56.101Z,50.02
2023-05-19T09:39:56.022Z,44.13
2023-05-19T09:40:56.026Z,43.63
2023-05-19T09:41:56.184Z,50.32
2023-05-19T09:42:55.988Z,46.81
2023-05-19T09:43:56.038Z,50.42
2023-05-19T09:44:56.258Z,46.04
2023-05-19T09:45:56.180Z,45.43
2023-05-19T09:46:56.015Z,46.24
2023-05-19T09:47:55.952Z,49.32
2023-05-19T09:48:56.167Z,49.19
2023-05-19T09:49:55.947Z,45.20
2023-05-19T09:50:56.150Z,46.00
2023-05-19T09:51:55.942Z,47.87
2023-05-19T09:52:55.908Z,46.37
2023-05-19T09:53:55.880Z,45.85
2023-05-19T09:54:55.884Z,46.33
2023-05-19T09:55:56.108Z,44.23
2023-05-19T09:56:55.923Z,45.31
2023-05-19T09:57:56.036Z,44.81
2023-05-19T09:58:56.017Z,46.42
2023-05-19T09:59:56.064Z,48.02
2023-05-19T10:00:56.032Z,44.70
2023-05-19T10:01:55.990Z,46.59
2023-05-19T10:02:55.921Z,48.47
2023-05-19T10:03:55.926Z,46.15
2023-05-19T10:04:55.845Z,46.53
2023-05-19T10:05:55.786Z,43.51
2023-05-19T10:06:55.797Z,45.17
2023-05-19T10:07:55.924Z,48.13
2023-05-19T10:08:55.958Z,43.93
2023-05-19T10:09:56.799Z,42.53
2023-05-19T10:10:55.970Z,39.06
2023-05-19T10:11:55.964Z,43.03
2023-05-19T10:12:55.827Z,44.87
2023-05-19T10:13:55.730Z,46.85
2023-05-19T10:14:55.745Z,44.01
2023-05-19T10:15:59.343Z,45.56
2023-05-19T10:16:55.821Z,44.76
2023-05-19T10:17:55.731Z,43.76
2023-05-19T10:18:55.812Z,51.04
2023-05-19T10:19:55.775Z,49.49
2023-05-19T10:20:55.648Z,45.07
2023-05-19T10:21:55.700Z,45.97
2023-05-19T10:22:55.634Z,46.45
2023-05-19T10:23:55.893Z,43.21
2023-05-19T10:24:55.748Z,47.48
2023-05-19T10:25:55.628Z,45.17
2023-05-19T10:26:55.618Z,44.94
2023-05-19T10:27:55.588Z,44.65
2023-05-19T10:28:55.679Z,42.65
2023-05-19T10:29:55.623Z,46.24
2023-05-19T10:30:55.831Z,41.93
2023-05-19T10:31:55.735Z,44.12
2023-05-19T10:32:55.760Z,42.05
2023-05-19T10:33:55.833Z,46.54
2023-05-19T10:34:55.505Z,43.59
2023-05-19T10:35:55.524Z,47.58
2023-05-19T10:36:55.497Z,50.45
2023-05-19T10:37:55.549Z,46.46
2023-05-19T10:38:55.480Z,46.16
2023-05-19T10:39:55.448Z,47.75
2023-05-19T10:40:56.688Z,46.36
2023-05-19T10:41:55.437Z,43.37
2023-05-19T10:42:55.494Z,47.06
2023-05-19T10:43:55.625Z,44.45
2023-05-19T10:44:55.460Z,44.27
2023-05-19T10:45:55.468Z,43.77
2023-05-19T10:46:56.811Z,47.33
2023-05-19T10:47:55.468Z,41.93
2023-05-19T10:48:55.679Z,42.75
2023-05-19T10:49:55.404Z,46.26
2023-05-19T10:50:55.469Z,45.31
2023-05-19T10:51:55.365Z,44.27
2023-05-19T10:52:55.387Z,45.84
2023-05-19T10:53:55.399Z,46.31
2023-05-19T10:54:55.339Z,51.54
2023-05-19T10:55:55.901Z,48.52
2023-05-19T10:56:55.359Z,47.09
2023-05-19T10:57:55.327Z,48.35
2023-05-19T10:58:55.354Z,50.99
2023-05-19T10:59:55.391Z,49.85
2023-05-19T11:00:55.272Z,42.49
2023-05-19T11:01:55.669Z,41.74
2023-05-19T11:02:56.041Z,41.74
2023-05-19T11:03:55.470Z,48.52
2023-05-19T11:04:55.444Z,51.07
2023-05-19T11:05:55.271Z,42.29
2023-05-19T11:06:55.252Z,44.87
2023-05-19T11:07:55.607Z,44.35
2023-05-19T11:08:55.268Z,40.78
2023-05-19T11:09:55.310Z,43.85
2023-05-19T11:10:55.407Z,51.82
2023-05-19T11:11:55.253Z,49.18
2023-05-19T11:12:55.184Z,44.57
2023-05-19T11:13:55.367Z,49.35
2023-05-19T11:14:55.530Z,47.06
2023-05-19T11:15:55.259Z,51.25
2023-05-19T11:16:55.441Z,50.85
2023-05-19T11:17:55.216Z,48.46
2023-05-19T11:18:55.178Z,48.16
2023-05-19T11:19:55.224Z,47.16
2023-05-19T11:20:55.163Z,43.09
2023-05-19T11:21:55.136Z,46.78
2023-05-19T11:22:55.397Z,50.65
2023-05-19T11:23:55.148Z,45.56
2023-05-19T11:24:55.095Z,41.80
2023-05-19T11:25:55.031Z,43.31
2023-05-19T11:26:55.216Z,41.77
2023-05-19T11:27:55.328Z,52.29
2023-05-19T11:28:55.156Z,51.54
2023-05-19T11:29:55.214Z,50.42
2023-05-19T11:30:55.061Z,47.18
2023-05-19T11:31:55.036Z,51.54
2023-05-19T11:32:55.156Z,46.73
2023-05-19T11:33:54.989Z,47.21
2023-05-19T11:34:54.949Z,42.93
2023-05-19T11:35:55.118Z,47.03
2023-05-19T11:36:55.082Z,40.58
2023-05-19T11:37:55.151Z,49.08
2023-05-19T11:38:55.014Z,48.05
2023-05-19T11:39:54.947Z,46.36
2023-05-19T11:40:54.918Z,44.54
2023-05-19T11:41:54.987Z,44.15
2023-05-19T11:42:54.899Z,44.45
2023-05-19T11:43:54.912Z,53.41
2023-05-19T11:44:55.194Z,45.52
2023-05-19T11:45:55.011Z,40.74
2023-05-19T11:46:54.899Z,46.31
2023-05-19T11:48:54.862Z,41.08
2023-05-19T11:49:54.949Z,38.31
2023-05-19T11:50:54.848Z,46.31
2023-05-19T11:51:54.800Z,44.81
2023-05-19T11:52:54.810Z,44.61
2023-05-19T11:53:54.797Z,44.31
2023-05-19T11:54:54.861Z,46.23
2023-05-19T11:55:55.066Z,43.40
2023-05-19T11:56:55.188Z,47.79
2023-05-19T11:58:02.797Z,45.47
2023-05-19T11:58:54.903Z,50.65
2023-05-19T11:59:54.999Z,47.22
2023-05-19T12:00:54.911Z,48.60
2023-05-19T12:01:54.700Z,40.89
2023-05-19T12:02:54.949Z,44.89
2023-05-19T12:03:56.102Z,39.28
2023-05-19T12:04:54.723Z,42.99
2023-05-19T12:05:54.743Z,46.87
2023-05-19T12:06:54.831Z,43.67
2023-05-19T12:07:54.643Z,47.95
2023-05-19T12:08:54.751Z,43.25
2023-05-19T12:09:54.791Z,47.22
2023-05-19T12:10:54.660Z,43.73
2023-05-19T12:11:54.603Z,47.03
2023-05-19T12:12:54.610Z,44.01
2023-05-19T12:13:54.587Z,41.61
2023-05-19T12:14:54.643Z,46.80
2023-05-19T12:15:54.629Z,45.48
2023-05-19T12:16:55.060Z,45.47
2023-05-19T12:17:54.770Z,46.66
2023-05-19T12:18:54.724Z,42.65
2023-05-19T12:19:54.697Z,44.74
2023-05-19T12:20:54.557Z,44.05
2023-05-19T12:21:54.540Z,42.35
2023-05-19T12:22:54.499Z,42.65
2023-05-19T12:23:54.474Z,41.58
2023-05-19T12:24:54.549Z,45.66
2023-05-19T12:25:54.529Z,41.09
2023-05-19T12:26:54.484Z,40.50
2023-05-19T12:27:55.985Z,39.90
2023-05-19T12:28:54.475Z,43.89
2023-05-19T12:29:54.484Z,43.37
2023-05-19T12:30:54.414Z,41.80
2023-05-19T12:31:54.493Z,42.77
2023-05-19T12:32:54.539Z,42.37
2023-05-19T12:33:54.424Z,44.45
2023-05-19T12:34:54.405Z,42.15
2023-05-19T12:35:54.505Z,43.95
2023-05-19T12:36:54.360Z,43.97
2023-05-19T12:37:54.415Z,46.54
2023-05-19T12:38:54.387Z,42.95
2023-05-19T12:39:54.409Z,44.74
2023-05-19T12:40:54.531Z,41.66
2023-05-19T12:41:54.312Z,42.10
2023-05-19T12:42:54.322Z,44.11
2023-05-19T12:43:54.462Z,43.73
2023-05-19T12:44:54.373Z,46.65
2023-05-19T12:45:54.328Z,44.05
2023-05-19T12:46:54.344Z,42.46
2023-05-19T12:47:54.502Z,46.45
2023-05-19T12:48:54.324Z,43.23
2023-05-19T12:49:54.418Z,45.33
2023-05-19T12:50:54.360Z,44.09
2023-05-19T12:51:54.499Z,45.09
2023-05-19T12:52:54.217Z,42.29